Time;durP1;ratioP1;P1;durP2;ratioP2;P2;SDS_P1;SDS_P2;PMS_P1;PMS_P2;Temp;Humidity;BMP_temperature;BMP_pressure;BME280_temperature;BME280_humidity;BME280_pressure;Samples;Min_cycle;Max_cycle;Signal;HPM_P1;HPM_P2
2023/03/13 00:01:52;;;;;;;36.07;7.23;;;16.40;59.30;;;;;;5059022;28;20191;-92
2023/03/13 00:04:24;;;;;;;38.20;7.87;;;16.30;59.20;;;;;;5060064;28;20200;-94
2023/03/13 00:06:52;;;;;;;30.30;7.50;;;16.20;59.10;;;;;;5062430;28;20221;-87
2023/03/13 00:09:18;;;;;;;30.73;6.70;;;16.40;59.30;;;;;;5058971;28;20201;-95
2023/03/13 00:11:46;;;;;;;37.53;7.50;;;16.40;59.30;;;;;;5060518;28;20203;-95
2023/03/13 00:14:13;;;;;;;28.50;6.53;;;16.40;59.80;;;;;;5062830;28;20678;-90
2023/03/13 00:16:40;;;;;;;55.07;8.83;;;16.40;59.30;;;;;;5061880;28;20749;-91
2023/03/13 00:19:07;;;;;;;28.03;6.70;;;16.40;59.30;;;;;;5064352;28;20251;-88
2023/03/13 00:21:37;;;;;;;37.03;7.63;;;16.40;59.30;;;;;;5062090;28;20293;-89
2023/03/13 00:24:07;;;;;;;36.07;7.23;;;16.40;59.30;;;;;;5071301;28;20245;-88
2023/03/13 00:26:34;;;;;;;38.80;7.70;;;16.40;59.30;;;;;;5067801;28;20214;-87
2023/03/13 00:29:01;;;;;;;28.33;6.73;;;16.40;59.30;;;;;;5062051;28;20208;-86
2023/03/13 00:31:30;;;;;;;26.93;6.50;;;16.40;59.30;;;;;;5069624;28;20244;-85
2023/03/13 00:33:59;;;;;;;28.90;6.20;;;16.40;59.30;;;;;;5071080;28;20203;-86
2023/03/13 00:36:27;;;;;;;47.27;8.17;;;16.40;59.30;;;;;;5068987;28;20196;-89
2023/03/13 00:38:56;;;;;;;30.87;6.43;;;16.40;59.40;;;;;;5062398;28;20238;-86
2023/03/13 00:41:25;;;;;;;30.37;6.30;;;16.40;59.30;;;;;;5069710;28;20221;-85
2023/03/13 00:43:52;;;;;;;30.17;6.43;;;16.40;59.30;;;;;;5069482;28;20206;-86
2023/03/13 00:46:21;;;;;;;29.87;6.30;;;16.40;59.40;;;;;;5051252;28;20212;-87
2023/03/13 00:48:49;;;;;;;28.67;5.77;;;16.40;59.40;;;;;;5064712;28;20650;-85
2023/03/13 00:51:17;;;;;;;24.73;5.93;;;16.40;59.30;;;;;;5070153;28;20204;-88
2023/03/13 00:53:45;;;;;;;30.43;6.50;;;16.40;59.30;;;;;;5068771;28;20751;-86
2023/03/13 00:56:14;;;;;;;39.93;7.27;;;16.40;59.40;;;;;;5071979;28;20214;-85
2023/03/13 00:58:43;;;;;;;28.60;6.40;;;16.50;59.50;;;;;;5069544;28;20325;-87
2023/03/13 01:01:12;;;;;;;36.00;7.00;;;16.40;59.40;;;;;;5068844;28;20198;-85
2023/03/13 01:03:40;;;;;;;38.20;6.77;;;16.40;59.40;;;;;;5071334;28;20196;-85
2023/03/13 01:06:09;;;;;;;45.87;7.87;;;16.50;59.50;;;;;;5069905;28;20210;-86
2023/03/13 01:08:36;;;;;;;34.03;6.90;;;16.50;59.50;;;;;;5057898;28;20840;-86
2023/03/13 01:11:05;;;;;;;28.33;6.23;;;16.50;59.50;;;;;;5070705;28;20208;-85
2023/03/13 01:13:33;;;;;;;30.80;6.20;;;16.50;59.50;;;;;;5068402;28;20213;-86
2023/03/13 01:16:03;;;;;;;30.90;6.23;;;16.40;59.40;;;;;;5067538;28;20205;-85
2023/03/13 01:18:30;;;;;;;34.13;6.63;;;16.40;59.40;;;;;;5057572;28;20232;-89
2023/03/13 01:20:57;;;;;;;22.27;5.90;;;16.50;59.50;;;;;;5055936;28;20201;-87
2023/03/13 01:23:24;;;;;;;26.97;5.80;;;16.50;59.60;;;;;;5066398;28;20805;-85
2023/03/13 01:25:50;;;;;;;27.17;5.70;;;16.50;59.60;;;;;;5067431;28;20210;-85
2023/03/13 01:28:17;;;;;;;39.37;6.87;;;16.50;59.60;;;;;;5062537;28;20204;-85
2023/03/13 01:30:46;;;;;;;43.70;7.20;;;16.50;59.60;;;;;;5066622;28;20289;-86
2023/03/13 01:33:13;;;;;;;26.77;5.50;;;16.50;59.60;;;;;;5068757;28;20212;-85
2023/03/13 01:35:39;;;;;;;38.53;6.70;;;16.50;59.70;;;;;;5067286;28;20215;-88
2023/03/13 01:38:07;;;;;;;24.07;5.97;;;16.50;59.60;;;;;;5068731;28;20230;-85
2023/03/13 01:40:40;;;;;;;36.83;6.23;;;16.50;60.20;;;;;;5068474;28;20224;-90
2023/03/13 01:43:18;;;;;;;58.87;8.53;;;16.50;59.70;;;;;;5066883;28;20206;-85
2023/03/13 01:46:08;;;;;;;25.77;5.87;;;16.50;59.80;;;;;;5063650;28;20206;-86
2023/03/13 01:48:43;;;;;;;28.20;5.90;;;16.50;59.80;;;;;;5055622;28;20205;-85
2023/03/13 01:51:14;;;;;;;26.03;5.37;;;16.50;59.70;;;;;;5068175;28;20206;-85
2023/03/13 01:53:43;;;;;;;30.77;5.90;;;16.50;59.60;;;;;;5068736;28;20284;-85
2023/03/13 01:56:14;;;;;;;26.20;5.10;;;16.50;59.70;;;;;;5062605;28;20208;-85
2023/03/13 01:58:42;;;;;;;39.57;6.93;;;16.50;59.70;;;;;;5068165;28;20228;-88
2023/03/13 02:01:11;;;;;;;25.33;5.30;;;16.50;59.70;;;;;;5067176;28;20195;-86
2023/03/13 02:03:38;;;;;;;36.40;6.53;;;16.50;59.70;;;;;;5069114;28;20581;-86
2023/03/13 02:06:07;;;;;;;21.33;5.10;;;16.50;59.70;;;;;;5062940;28;20204;-86
2023/03/13 02:08:37;;;;;;;41.97;6.87;;;16.50;59.80;;;;;;5067992;28;20386;-85
2023/03/13 02:11:12;;;;;;;26.57;5.40;;;16.60;59.80;;;;;;5068046;28;20211;-88
2023/03/13 02:13:39;;;;;;;28.10;5.53;;;16.50;59.80;;;;;;5066496;28;20718;-86
2023/03/13 02:16:07;;;;;;;26.17;5.73;;;16.70;59.90;;;;;;5063098;28;20201;-86
2023/03/13 02:18:37;;;;;;;30.43;5.83;;;16.60;60.50;;;;;;5068488;28;20236;-86
2023/03/13 02:21:11;;;;;;;51.63;7.43;;;16.60;59.80;;;;;;5066490;28;20204;-86
2023/03/13 02:23:44;;;;;;;29.43;6.00;;;16.60;59.90;;;;;;5068071;28;20836;-89
2023/03/13 02:26:14;;;;;;;31.00;5.83;;;16.70;59.90;;;;;;5060494;28;20203;-89
2023/03/13 02:28:40;;;;;;;29.63;5.67;;;16.60;59.80;;;;;;5066993;28;20208;-92
2023/03/13 02:31:08;;;;;;;25.53;5.27;;;16.60;59.80;;;;;;5058961;28;20202;-86
2023/03/13 02:33:38;;;;;;;27.13;5.90;;;16.60;59.80;;;;;;5067444;28;20280;-91
2023/03/13 02:36:08;;;;;;;23.87;5.33;;;16.60;59.80;;;;;;5065144;28;20211;-91
2023/03/13 02:38:51;;;;;;;23.83;5.03;;;16.60;59.80;;;;;;5066867;28;20227;-86
2023/03/13 02:41:21;;;;;;;25.93;5.27;;;16.60;59.90;;;;;;5065136;28;20603;-85
2023/03/13 02:43:48;;;;;;;39.03;6.40;;;16.60;59.90;;;;;;5066499;28;20206;-85
2023/03/13 02:46:17;;;;;;;54.00;7.93;;;16.60;59.80;;;;;;5062361;28;22018;-88
2023/03/13 02:48:46;;;;;;;46.77;7.27;;;16.60;59.80;;;;;;5067358;28;20210;-91
2023/03/13 02:51:19;;;;;;;26.67;5.83;;;16.60;59.90;;;;;;5065856;28;20199;-85
2023/03/13 02:53:49;;;;;;;27.10;5.80;;;16.60;59.80;;;;;;5066261;28;20655;-91
2023/03/13 02:56:20;;;;;;;23.77;5.67;;;16.70;59.90;;;;;;5061127;28;20209;-92
2023/03/13 02:58:50;;;;;;;32.83;6.37;;;16.70;59.90;;;;;;5068809;28;20224;-87
2023/03/13 03:01:17;;;;;;;30.17;5.73;;;16.60;59.80;;;;;;5064463;28;20203;-87
2023/03/13 03:03:43;;;;;;;45.40;7.93;;;16.70;59.90;;;;;;5064891;28;20277;-85
2023/03/13 03:06:10;;;;;;;21.20;5.37;;;16.70;59.90;;;;;;5061170;28;20273;-85
2023/03/13 03:08:40;;;;;;;24.77;5.40;;;16.70;60.00;;;;;;5064996;28;20210;-86
2023/03/13 03:11:10;;;;;;;27.63;5.57;;;16.60;59.80;;;;;;5067252;28;20206;-86
2023/03/13 03:13:38;;;;;;;32.90;6.40;;;16.70;59.90;;;;;;5065967;28;20220;-87
2023/03/13 03:16:09;;;;;;;34.23;6.30;;;16.70;59.90;;;;;;5062357;28;20583;-85
2023/03/13 03:18:37;;;;;;;22.20;5.20;;;16.70;60.00;;;;;;5066820;28;20221;-85
2023/03/13 03:21:05;;;;;;;33.23;6.63;;;16.70;59.90;;;;;;5065800;28;20194;-85
2023/03/13 03:23:33;;;;;;;27.50;6.40;;;16.70;60.00;;;;;;5067424;28;20224;-85
2023/03/13 03:26:00;;;;;;;20.73;5.77;;;16.70;59.90;;;;;;5067774;28;20204;-86
2023/03/13 03:28:27;;;;;;;26.87;6.20;;;16.70;59.90;;;;;;5067804;28;20208;-85
2023/03/13 03:30:55;;;;;;;31.73;6.77;;;16.70;60.00;;;;;;5068032;28;20282;-86
2023/03/13 03:33:23;;;;;;;43.37;7.20;;;16.70;60.00;;;;;;5067056;28;20201;-85
2023/03/13 03:35:51;;;;;;;28.00;5.90;;;16.70;60.00;;;;;;5062452;28;20917;-85
2023/03/13 03:38:17;;;;;;;20.30;5.67;;;16.70;60.00;;;;;;5067793;28;20225;-86
2023/03/13 03:40:44;;;;;;;45.13;7.57;;;16.70;60.00;;;;;;5064843;28;20851;-86
2023/03/13 03:43:11;;;;;;;29.97;6.57;;;16.80;60.20;;;;;;5066533;28;20217;-85
2023/03/13 03:45:38;;;;;;;34.43;6.60;;;16.80;60.10;;;;;;5063010;28;20201;-85
2023/03/13 03:48:06;;;;;;;29.53;6.03;;;16.70;60.00;;;;;;5067227;28;20207;-86
2023/03/13 03:50:33;;;;;;;57.93;8.37;;;16.80;60.20;;;;;;5067738;28;20205;-87
2023/03/13 03:53:00;;;;;;;37.57;6.77;;;16.80;60.20;;;;;;5069159;28;20682;-88
2023/03/13 03:55:27;;;;;;;25.27;5.80;;;16.80;60.20;;;;;;5066579;28;20203;-86
2023/03/13 03:57:54;;;;;;;27.60;6.03;;;16.80;60.20;;;;;;5068550;28;20198;-87
2023/03/13 04:00:21;;;;;;;31.23;6.47;;;16.80;60.20;;;;;;5069535;28;20664;-91
2023/03/13 04:02:54;;;;;;;26.40;5.70;;;16.80;60.20;;;;;;5068842;28;20202;-87
2023/03/13 04:05:23;;;;;;;25.33;5.57;;;16.80;60.30;;;;;;5070458;28;20297;-91
2023/03/13 04:07:50;;;;;;;47.47;7.53;;;16.80;60.20;;;;;;5068842;28;20976;-89
2023/03/13 04:10:17;;;;;;;31.47;6.50;;;16.80;60.20;;;;;;5070336;28;20743;-86
2023/03/13 04:12:44;;;;;;;31.67;6.10;;;16.80;60.30;;;;;;5064602;28;20569;-85
2023/03/13 04:15:12;;;;;;;32.33;6.50;;;16.80;60.20;;;;;;5071322;28;20573;-86
2023/03/13 04:17:39;;;;;;;24.27;5.30;;;16.80;60.30;;;;;;5069374;28;20203;-85
2023/03/13 04:20:07;;;;;;;43.97;7.23;;;16.80;60.20;;;;;;5065916;28;20218;-86
2023/03/13 04:22:35;;;;;;;54.00;7.77;;;16.80;60.30;;;;;;5063968;28;20594;-85
2023/03/13 04:25:02;;;;;;;31.73;6.10;;;16.80;60.30;;;;;;5070479;28;20308;-85
2023/03/13 04:27:29;;;;;;;34.73;6.67;;;16.90;60.40;;;;;;5069938;28;20210;-86
2023/03/13 04:29:56;;;;;;;30.80;6.50;;;16.80;60.30;;;;;;5069617;28;21059;-87
2023/03/13 04:32:22;;;;;;;33.43;6.67;;;16.80;60.30;;;;;;5064996;28;20211;-88
2023/03/13 04:34:49;;;;;;;26.57;5.57;;;16.80;60.20;;;;;;5070371;28;20202;-85
2023/03/13 04:37:16;;;;;;;18.57;5.20;;;16.90;60.40;;;;;;5068872;28;20204;-86
2023/03/13 04:39:46;;;;;;;39.83;6.47;;;16.90;60.30;;;;;;5069543;28;20238;-86
2023/03/13 04:42:13;;;;;;;17.83;4.70;;;16.90;60.40;;;;;;5064747;28;20209;-86
2023/03/13 04:44:40;;;;;;;27.70;5.97;;;16.90;60.40;;;;;;5068927;28;20201;-91
2023/03/13 04:47:07;;;;;;;30.30;6.17;;;16.90;60.40;;;;;;5066031;28;20197;-86
2023/03/13 04:49:34;;;;;;;24.53;5.83;;;16.90;60.40;;;;;;5069612;28;20209;-92
2023/03/13 04:52:01;;;;;;;44.07;7.37;;;16.90;60.40;;;;;;5065342;28;20202;-86
2023/03/13 04:54:27;;;;;;;22.73;5.40;;;16.90;60.40;;;;;;5066175;28;20213;-88
2023/03/13 04:56:56;;;;;;;54.40;8.43;;;16.90;60.50;;;;;;5068231;28;20204;-90
2023/03/13 04:59:23;;;;;;;24.43;5.47;;;16.90;60.40;;;;;;5070383;28;20226;-87
2023/03/13 05:01:49;;;;;;;23.60;6.00;;;16.90;60.40;;;;;;5066753;28;20265;-88
2023/03/13 05:04:16;;;;;;;30.33;6.30;;;16.90;60.40;;;;;;5063123;28;20242;-89
2023/03/13 05:06:43;;;;;;;33.97;6.77;;;16.90;60.50;;;;;;5069257;28;20210;-90
2023/03/13 05:09:10;;;;;;;35.57;6.80;;;16.90;60.50;;;;;;5069164;28;20200;-86
2023/03/13 05:11:39;;;;;;;29.53;5.97;;;17.00;60.60;;;;;;5069047;28;20199;-88
2023/03/13 05:14:08;;;;;;;39.57;7.20;;;17.00;60.50;;;;;;5061794;28;20215;-87
2023/03/13 05:16:35;;;;;;;37.67;6.87;;;17.00;60.50;;;;;;5069220;28;20205;-89
2023/03/13 05:19:02;;;;;;;47.27;7.57;;;17.00;60.50;;;;;;5066852;28;20235;-87
2023/03/13 05:21:29;;;;;;;26.57;5.83;;;17.10;61.40;;;;;;5068419;28;20626;-86
2023/03/13 05:23:56;;;;;;;28.93;6.53;;;17.00;60.60;;;;;;5066448;28;20657;-86
2023/03/13 05:26:23;;;;;;;28.23;5.97;;;17.00;60.60;;;;;;5069164;28;20208;-87
2023/03/13 05:28:50;;;;;;;32.57;6.37;;;17.00;60.60;;;;;;5069523;28;20571;-88
2023/03/13 05:31:18;;;;;;;32.67;6.23;;;17.00;60.60;;;;;;5069924;28;20658;-91
2023/03/13 05:33:45;;;;;;;32.80;6.43;;;17.00;60.60;;;;;;5062766;28;20206;-86
2023/03/13 05:36:12;;;;;;;30.17;5.90;;;17.00;61.40;;;;;;5068885;28;20669;-90
2023/03/13 05:38:39;;;;;;;25.93;5.97;;;17.00;60.60;;;;;;5069703;28;20206;-89
2023/03/13 05:41:05;;;;;;;33.80;7.20;;;17.10;60.70;;;;;;5069428;28;20650;-88
2023/03/13 05:43:33;;;;;;;28.97;6.60;;;17.10;60.70;;;;;;5064158;28;20317;-90
2023/03/13 05:46:00;;;;;;;58.77;8.30;;;17.00;60.70;;;;;;5063221;28;20199;-88
2023/03/13 05:48:28;;;;;;;30.53;6.63;;;17.00;60.60;;;;;;5064744;28;20562;-88
2023/03/13 05:50:55;;;;;;;36.00;6.13;;;17.00;60.60;;;;;;5053687;28;20210;-86
2023/03/13 05:53:22;;;;;;;45.00;7.03;;;17.10;60.80;;;;;;5062729;28;20203;-86
2023/03/13 05:55:49;;;;;;;22.17;5.20;;;17.00;60.70;;;;;;5065914;28;20198;-88
2023/03/13 05:58:16;;;;;;;28.20;6.33;;;17.00;60.70;;;;;;5067886;28;20687;-87
2023/03/13 06:00:43;;;;;;;46.17;7.23;;;17.10;60.80;;;;;;5064975;28;20239;-85
2023/03/13 06:03:10;;;;;;;30.37;6.27;;;17.10;60.70;;;;;;5066857;28;20210;-86
2023/03/13 06:05:38;;;;;;;29.00;6.80;;;17.10;60.80;;;;;;5068885;28;20213;-88
2023/03/13 06:08:06;;;;;;;31.90;6.00;;;17.10;60.80;;;;;;5064420;28;20563;-86
2023/03/13 06:10:33;;;;;;;33.13;6.13;;;17.10;60.80;;;;;;5068198;28;20213;-86
2023/03/13 06:13:01;;;;;;;42.57;6.93;;;17.10;60.80;;;;;;5064408;28;20295;-86
2023/03/13 06:15:28;;;;;;;25.57;5.63;;;17.10;60.80;;;;;;5049556;28;20209;-86
2023/03/13 06:17:55;;;;;;;33.23;6.90;;;17.10;60.80;;;;;;5058959;28;20870;-86
2023/03/13 06:20:22;;;;;;;33.30;6.53;;;17.10;60.80;;;;;;5066328;28;20245;-86
2023/03/13 06:22:50;;;;;;;41.43;7.00;;;17.10;60.90;;;;;;5064104;28;20198;-87
2023/03/13 06:25:17;;;;;;;30.13;6.37;;;17.10;60.80;;;;;;5066874;28;20216;-86
2023/03/13 06:27:44;;;;;;;33.60;6.13;;;17.10;60.90;;;;;;5062339;28;20201;-86
2023/03/13 06:30:12;;;;;;;32.10;6.40;;;17.10;60.90;;;;;;5067367;28;20582;-85
2023/03/13 06:32:39;;;;;;;26.23;6.03;;;17.10;60.90;;;;;;5067387;28;20207;-86
2023/03/13 06:35:06;;;;;;;31.10;6.17;;;17.10;60.90;;;;;;5067795;28;20206;-86
2023/03/13 06:37:34;;;;;;;29.17;6.63;;;17.10;60.90;;;;;;5062977;28;20200;-86
2023/03/13 06:40:03;;;;;;;27.60;6.60;;;17.10;60.90;;;;;;5065148;28;20634;-88
2023/03/13 06:42:33;;;;;;;39.90;7.27;;;17.10;60.90;;;;;;5064132;28;20195;-85
2023/03/13 06:45:02;;;;;;;37.33;6.63;;;17.20;61.00;;;;;;5065085;28;20204;-86
2023/03/13 06:47:30;;;;;;;33.23;6.83;;;17.20;61.00;;;;;;5065128;28;20278;-86
2023/03/13 06:49:57;;;;;;;26.87;5.47;;;17.10;61.00;;;;;;5068016;28;20206;-85
2023/03/13 06:52:24;;;;;;;38.57;6.43;;;17.10;60.90;;;;;;5064846;28;20207;-85
2023/03/13 06:54:51;;;;;;;66.67;8.40;;;17.20;61.10;;;;;;5067282;28;20199;-86
2023/03/13 06:57:19;;;;;;;56.07;8.23;;;17.20;61.10;;;;;;5061707;28;20209;-85
2023/03/13 06:59:46;;;;;;;24.13;5.67;;;17.20;61.10;;;;;;5058753;28;20227;-85
2023/03/13 07:02:13;;;;;;;36.03;7.13;;;17.20;61.10;;;;;;5062483;28;20206;-85
2023/03/13 07:04:40;;;;;;;25.30;5.53;;;17.20;61.10;;;;;;5066780;28;20218;-85
2023/03/13 07:07:07;;;;;;;31.83;6.50;;;17.20;61.10;;;;;;5061803;28;20206;-86
2023/03/13 07:09:34;;;;;;;35.77;6.13;;;17.20;61.10;;;;;;5066214;28;20206;-86
2023/03/13 07:12:02;;;;;;;28.67;5.83;;;17.20;61.10;;;;;;5067810;28;20204;-85
2023/03/13 07:14:36;;;;;;;28.67;5.77;;;17.20;61.10;;;;;;5067946;28;20244;-86
2023/03/13 07:17:03;;;;;;;47.77;7.13;;;17.20;61.20;;;;;;5064125;28;20676;-88
2023/03/13 07:19:30;;;;;;;38.60;6.33;;;17.20;61.10;;;;;;5068474;28;20906;-91
2023/03/13 07:21:57;;;;;;;43.40;6.87;;;17.20;61.20;;;;;;5065456;28;20191;-88
2023/03/13 07:24:24;;;;;;;28.20;5.80;;;17.20;61.20;;;;;;5067968;28;20776;-86
2023/03/13 07:26:51;;;;;;;34.57;6.10;;;17.20;61.20;;;;;;5068727;28;20206;-86
2023/03/13 07:29:18;;;;;;;24.17;5.33;;;17.20;61.20;;;;;;5071617;28;20203;-85
2023/03/13 07:31:46;;;;;;;26.50;5.57;;;17.20;61.20;;;;;;5071591;28;20659;-86
2023/03/13 07:34:13;;;;;;;34.07;6.07;;;17.20;61.20;;;;;;5070628;28;20651;-85
2023/03/13 07:36:40;;;;;;;35.87;6.40;;;17.20;61.20;;;;;;5065795;28;20218;-86
2023/03/13 07:39:07;;;;;;;24.40;5.13;;;17.20;61.30;;;;;;5069798;28;20197;-85
2023/03/13 07:41:34;;;;;;;27.00;5.77;;;17.20;61.30;;;;;;5065090;28;20232;-85
2023/03/13 07:44:01;;;;;;;43.87;7.27;;;17.30;61.40;;;;;;5069799;28;20214;-85
2023/03/13 07:46:28;;;;;;;34.83;5.97;;;17.20;61.20;;;;;;5070293;28;20205;-86
2023/03/13 07:48:56;;;;;;;24.13;5.23;;;17.20;61.30;;;;;;5069949;28;20575;-92
2023/03/13 07:51:24;;;;;;;60.23;8.20;;;17.20;61.30;;;;;;5071943;28;20207;-88
2023/03/13 07:53:51;;;;;;;24.40;5.33;;;17.30;61.40;;;;;;5072922;28;20247;-85
2023/03/13 07:56:24;;;;;;;56.00;8.13;;;17.30;61.50;;;;;;5051721;28;20562;-86
2023/03/13 07:58:51;;;;;;;27.63;5.53;;;17.30;61.50;;;;;;5066577;28;20210;-85
2023/03/13 08:01:19;;;;;;;42.73;6.43;;;17.30;61.40;;;;;;5069291;28;20312;-86
2023/03/13 08:03:49;;;;;;;23.70;5.27;;;17.30;61.50;;;;;;5070784;28;20197;-85
2023/03/13 08:06:19;;;;;;;24.30;4.87;;;17.30;61.40;;;;;;5068040;28;20288;-88
2023/03/13 08:08:46;;;;;;;29.03;5.57;;;17.30;61.50;;;;;;5067708;28;20685;-86
2023/03/13 08:11:15;;;;;;;29.27;5.80;;;17.30;61.40;;;;;;5071981;28;20209;-86
2023/03/13 08:13:42;;;;;;;31.80;5.97;;;17.30;61.40;;;;;;5069763;28;20287;-89
2023/03/13 08:16:10;;;;;;;23.67;5.13;;;17.30;61.40;;;;;;5069595;28;20199;-86
2023/03/13 08:18:39;;;;;;;54.27;7.47;;;17.30;61.50;;;;;;5066138;28;20660;-88
2023/03/13 08:21:07;;;;;;;21.87;4.93;;;17.30;61.40;;;;;;5065452;28;20226;-87
2023/03/13 08:23:36;;;;;;;28.70;5.50;;;17.30;61.40;;;;;;5068258;28;20203;-86
2023/03/13 08:26:05;;;;;;;35.00;5.70;;;17.30;61.50;;;;;;5069460;28;20218;-85
2023/03/13 08:28:33;;;;;;;48.03;7.27;;;17.30;61.50;;;;;;5057601;28;20284;-86
2023/03/13 08:31:06;;;;;;;19.70;5.03;;;17.30;61.40;;;;;;5067448;28;20194;-86
2023/03/13 08:33:32;;;;;;;27.97;5.63;;;17.30;61.50;;;;;;5067838;28;20208;-86
2023/03/13 08:35:59;;;;;;;25.40;4.90;;;17.40;61.60;;;;;;5070417;28;20225;-86
2023/03/13 08:38:26;;;;;;;29.57;5.50;;;17.40;61.60;;;;;;5068848;28;20226;-86
2023/03/13 08:40:57;;;;;;;23.60;4.93;;;17.40;61.60;;;;;;5063048;28;20233;-86
2023/03/13 08:43:24;;;;;;;47.63;6.43;;;17.40;61.60;;;;;;5068708;28;20197;-86
2023/03/13 08:45:55;;;;;;;24.63;5.27;;;17.40;61.60;;;;;;5069836;28;20203;-86
2023/03/13 08:48:22;;;;;;;23.90;4.60;;;17.40;61.60;;;;;;5068546;28;20312;-86
2023/03/13 08:51:02;;;;;;;24.17;4.97;;;17.40;61.60;;;;;;5066246;28;20200;-86
2023/03/13 08:53:29;;;;;;;31.67;5.70;;;17.40;61.70;;;;;;5065093;28;20673;-86
2023/03/13 08:55:58;;;;;;;31.17;5.50;;;17.40;61.60;;;;;;5068503;28;20222;-86
2023/03/13 08:58:25;;;;;;;38.03;6.37;;;17.40;61.60;;;;;;5068849;28;20201;-86
2023/03/13 09:00:52;;;;;;;22.27;4.80;;;17.40;61.60;;;;;;5062925;28;20219;-85
2023/03/13 09:03:18;;;;;;;36.80;5.87;;;17.40;61.60;;;;;;5069215;28;20224;-86
2023/03/13 09:05:46;;;;;;;29.57;6.03;;;17.40;61.60;;;;;;5067994;28;20714;-86
2023/03/13 09:08:14;;;;;;;26.47;5.43;;;17.40;61.60;;;;;;5069269;28;20210;-85
2023/03/13 09:10:41;;;;;;;33.63;5.57;;;17.40;61.60;;;;;;5064999;28;20217;-86
2023/03/13 09:13:09;;;;;;;30.20;5.93;;;17.40;61.60;;;;;;5068945;28;20198;-87
2023/03/13 09:15:36;;;;;;;46.03;7.03;;;17.40;61.70;;;;;;5068352;28;20566;-85
2023/03/13 09:18:05;;;;;;;26.90;5.20;;;17.40;61.60;;;;;;5070021;28;20288;-86
2023/03/13 09:20:32;;;;;;;37.83;6.03;;;17.50;61.70;;;;;;5065799;28;20235;-86
2023/03/13 09:22:59;;;;;;;23.43;5.10;;;17.50;61.70;;;;;;5069505;28;20655;-85
2023/03/13 09:25:25;;;;;;;30.43;5.73;;;17.50;61.70;;;;;;5070174;28;20546;-87
2023/03/13 09:27:52;;;;;;;43.67;6.83;;;17.50;61.70;;;;;;5068388;28;20665;-85
2023/03/13 09:30:21;;;;;;;38.60;6.10;;;17.50;61.70;;;;;;5066574;28;20206;-85
2023/03/13 09:32:48;;;;;;;31.20;5.40;;;17.50;62.60;;;;;;5067190;28;20205;-85
2023/03/13 09:35:15;;;;;;;50.90;7.07;;;17.50;61.80;;;;;;5066230;28;20192;-87
2023/03/13 09:37:42;;;;;;;32.80;5.80;;;17.50;61.80;;;;;;5068027;28;20199;-93
2023/03/13 09:40:14;;;;;;;37.03;6.07;;;17.50;61.80;;;;;;5070640;28;20231;-88
2023/03/13 09:42:47;;;;;;;22.90;5.10;;;17.50;61.80;;;;;;5063804;28;20252;-91
2023/03/13 09:45:19;;;;;;;29.77;6.07;;;17.60;61.90;;;;;;5066933;28;20206;-89
2023/03/13 09:47:50;;;;;;;35.93;6.63;;;17.60;61.80;;;;;;5069759;28;20203;-89
2023/03/13 09:50:23;;;;;;;30.43;5.93;;;17.60;61.90;;;;;;5068789;28;20210;-89
2023/03/13 09:52:54;;;;;;;51.20;7.67;;;17.60;61.90;;;;;;5065199;28;20196;-89
2023/03/13 09:55:24;;;;;;;31.90;5.80;;;17.60;61.90;;;;;;5066367;28;20205;-90
2023/03/13 09:57:54;;;;;;;38.60;6.80;;;17.60;62.00;;;;;;5069436;28;20214;-89
2023/03/13 10:00:25;;;;;;;36.50;5.80;;;17.60;62.00;;;;;;5069251;28;20280;-88
2023/03/13 10:02:58;;;;;;;33.10;5.63;;;17.60;62.00;;;;;;5068900;28;20210;-86
2023/03/13 10:05:27;;;;;;;32.73;5.93;;;17.60;62.00;;;;;;5066415;28;20729;-87
2023/03/13 10:07:58;;;;;;;39.13;6.97;;;17.70;62.10;;;;;;5049782;28;20196;-88
2023/03/13 10:10:35;;;;;;;34.90;6.10;;;17.70;62.10;;;;;;5049474;28;20277;-89
2023/03/13 10:13:15;;;;;;;41.27;6.63;;;17.70;62.10;;;;;;5050037;28;20232;-89
2023/03/13 10:15:49;;;;;;;57.50;8.10;;;17.70;62.10;;;;;;5056101;28;20635;-87
2023/03/13 10:18:20;;;;;;;38.33;5.93;;;17.70;62.10;;;;;;5067307;28;20558;-88
2023/03/13 10:20:49;;;;;;;32.40;5.80;;;17.70;62.20;;;;;;5069458;28;20639;-87
2023/03/13 10:23:22;;;;;;;25.50;5.03;;;17.70;62.10;;;;;;5062622;28;20685;-90
2023/03/13 10:25:48;;;;;;;42.97;6.83;;;17.80;62.20;;;;;;5071248;28;20276;-88
2023/03/13 10:28:19;;;;;;;34.70;6.30;;;17.80;62.20;;;;;;5070860;28;20260;-89
2023/03/13 10:30:50;;;;;;;35.03;6.27;;;17.80;62.20;;;;;;5066266;28;20195;-88
2023/03/13 10:33:23;;;;;;;36.97;6.40;;;17.80;62.20;;;;;;5063728;28;20623;-87
2023/03/13 10:36:02;;;;;;;26.83;5.50;;;17.90;63.20;;;;;;5059119;28;20191;-87
2023/03/13 10:38:33;;;;;;;30.93;5.77;;;17.90;62.40;;;;;;5065991;28;20207;-87
2023/03/13 10:41:02;;;;;;;48.23;7.07;;;17.90;62.40;;;;;;5066198;28;20222;-87
2023/03/13 10:43:29;;;;;;;33.67;6.50;;;18.00;62.40;;;;;;5067257;28;20317;-87
2023/03/13 10:45:56;;;;;;;28.53;5.73;;;17.90;62.30;;;;;;5064565;28;20203;-90
2023/03/13 10:48:27;;;;;;;32.43;5.67;;;17.90;62.40;;;;;;5064864;28;20573;-89
2023/03/13 10:50:56;;;;;;;30.30;6.00;;;17.90;63.10;;;;;;5066795;28;20748;-87
2023/03/13 10:53:33;;;;;;;28.63;5.63;;;17.90;62.90;;;;;;5066597;28;20215;-87
2023/03/13 10:56:05;;;;;;;64.33;8.27;;;17.90;62.80;;;;;;5064877;28;20204;-87
2023/03/13 10:58:35;;;;;;;38.87;6.43;;;18.00;62.70;;;;;;5066229;28;20686;-90
2023/03/13 11:01:21;;;;;;;34.20;6.13;;;18.00;62.50;;;;;;5069591;28;20279;-87
2023/03/13 11:03:50;;;;;;;28.53;5.47;;;18.10;62.70;;;;;;5067539;28;20199;-87
2023/03/13 11:06:27;;;;;;;42.50;7.10;;;18.10;62.50;;;;;;5069828;28;20234;-87
2023/03/13 11:09:13;;;;;;;37.87;6.43;;;18.10;62.60;;;;;;5058267;28;20205;-90
2023/03/13 11:11:48;;;;;;;64.83;8.47;;;18.10;62.60;;;;;;5064372;28;20194;-87
2023/03/13 11:14:18;;;;;;;29.13;5.97;;;18.20;62.60;;;;;;5063240;28;20214;-87
2023/03/13 11:16:50;;;;;;;36.30;5.87;;;18.20;62.50;;;;;;5069123;28;20195;-86
2023/03/13 11:19:31;;;;;;;57.40;7.80;;;18.20;62.60;;;;;;5069580;28;20278;-90
2023/03/13 11:22:10;;;;;;;32.93;6.20;;;18.20;62.70;;;;;;5069782;28;20221;-87
2023/03/13 11:24:43;;;;;;;25.03;5.60;;;18.20;62.60;;;;;;5063215;28;20664;-88
2023/03/13 11:27:21;;;;;;;41.10;7.10;;;18.20;62.60;;;;;;5071055;28;20203;-88
2023/03/13 11:29:59;;;;;;;38.87;6.47;;;18.30;62.70;;;;;;5065774;28;20207;-89
2023/03/13 11:32:33;;;;;;;34.10;6.57;;;18.20;62.50;;;;;;5067141;28;20203;-89
2023/03/13 11:35:07;;;;;;;46.50;7.10;;;18.30;62.70;;;;;;5067221;28;20195;-88
2023/03/13 11:37:39;;;;;;;52.13;7.60;;;18.30;62.60;;;;;;5064621;28;20210;-88
2023/03/13 11:40:19;;;;;;;41.27;6.63;;;18.30;62.60;;;;;;5067382;28;20221;-89
2023/03/13 11:43:04;;;;;;;34.87;6.23;;;18.30;62.70;;;;;;5066206;28;20199;-90
2023/03/13 11:45:51;;;;;;;46.00;7.20;;;18.30;62.70;;;;;;5068463;28;20730;-87
2023/03/13 11:48:27;;;;;;;62.87;8.73;;;18.40;62.80;;;;;;5057379;28;20685;-93
2023/03/13 11:51:02;;;;;;;36.77;6.63;;;18.40;62.70;;;;;;5071391;28;20286;-87
2023/03/13 11:53:44;;;;;;;35.40;6.23;;;18.40;62.70;;;;;;5068486;28;20255;-89
2023/03/13 11:56:20;;;;;;;31.60;5.67;;;18.40;62.70;;;;;;5069683;28;20203;-91
2023/03/13 11:59:04;;;;;;;28.07;6.07;;;18.40;62.70;;;;;;5068883;28;20735;-89
2023/03/13 12:01:35;;;;;;;26.40;5.53;;;18.40;62.70;;;;;;5070349;28;20609;-91
2023/03/13 12:04:11;;;;;;;30.60;6.50;;;18.40;62.60;;;;;;5064371;28;20968;-87
2023/03/13 12:06:43;;;;;;;47.57;7.37;;;18.50;62.80;;;;;;5053180;28;20203;-90
2023/03/13 12:09:15;;;;;;;35.13;7.33;;;18.50;62.80;;;;;;5068626;28;20226;-88
2023/03/13 12:11:46;;;;;;;37.03;7.17;;;18.50;62.70;;;;;;5068597;28;20282;-87
2023/03/13 12:14:17;;;;;;;30.20;6.20;;;18.50;62.70;;;;;;5067497;28;20225;-88
2023/03/13 12:16:48;;;;;;;28.10;6.50;;;18.50;62.80;;;;;;5067581;28;21038;-89
2023/03/13 12:19:22;;;;;;;26.13;6.27;;;18.50;62.70;;;;;;5068686;28;20299;-88
2023/03/13 12:21:54;;;;;;;30.00;6.13;;;18.50;62.70;;;;;;5067657;28;20222;-94
2023/03/13 12:24:28;;;;;;;35.10;5.97;;;18.60;62.80;;;;;;5065799;28;20203;-94
2023/03/13 12:26:59;;;;;;;22.23;5.33;;;18.60;62.80;;;;;;5066399;28;20206;-91
2023/03/13 12:29:37;;;;;;;39.37;6.87;;;18.60;62.80;;;;;;5069600;28;20209;-95
2023/03/13 12:32:13;;;;;;;52.43;8.03;;;18.60;62.80;;;;;;5063293;28;20226;-93
2023/03/13 12:34:52;;;;;;;43.63;7.50;;;18.60;62.80;;;;;;5068082;28;20192;-90
2023/03/13 12:37:28;;;;;;;41.53;7.73;;;18.60;62.80;;;;;;5057847;28;20202;-96
2023/03/13 12:40:00;;;;;;;30.40;6.10;;;18.60;62.80;;;;;;5072627;28;20226;-91
2023/03/13 12:42:43;;;;;;;44.53;7.10;;;18.60;62.80;;;;;;5067614;28;20726;-88
2023/03/13 12:45:17;;;;;;;53.87;7.50;;;18.70;62.90;;;;;;5059929;28;20731;-87
2023/03/13 12:48:08;;;;;;;53.27;8.17;;;18.70;62.90;;;;;;5065795;28;20626;-88